Time;durP1;ratioP1;P1;durP2;ratioP2;P2;SDS_P1;SDS_P2;PMS_P1;PMS_P2;Temp;Humidity;BMP_temperature;BMP_pressure;BME280_temperature;BME280_humidity;BME280_pressure;Samples;Min_cycle;Max_cycle;Signal;HPM_P1;HPM_P2
2021/06/03 00:00:12;;;;;;;8.63;4.00;;;;;;;11.83;100.00;94173.72;5073107;28;20248;-75
2021/06/03 00:02:38;;;;;;;6.73;3.90;;;;;;;11.95;100.00;94177.41;5073284;28;20203;-76
2021/06/03 00:05:07;;;;;;;9.10;3.97;;;;;;;12.07;100.00;94169.75;5072943;28;20286;-76
2021/06/03 00:07:33;;;;;;;4.00;3.60;;;;;;;12.31;100.00;94167.59;5072894;28;20688;-76
2021/06/03 00:09:59;;;;;;;7.70;3.80;;;;;;;12.43;100.00;94173.03;5073137;28;20211;-76
2021/06/03 00:12:25;;;;;;;4.67;3.67;;;;;;;12.37;100.00;94164.97;5073106;28;20203;-75
2021/06/03 00:14:51;;;;;;;5.77;3.20;;;;;;;12.34;100.00;94175.00;5073029;28;20198;-75
2021/06/03 00:17:19;;;;;;;4.40;3.50;;;;;;;12.18;100.00;94174.41;5072841;28;20209;-76
2021/06/03 00:19:45;;;;;;;5.50;3.23;;;;;;;12.09;100.00;94167.78;5072968;28;20205;-76
2021/06/03 00:22:11;;;;;;;6.30;3.70;;;;;;;12.10;100.00;94166.75;5072797;28;20203;-76
2021/06/03 00:24:37;;;;;;;4.30;3.23;;;;;;;12.13;100.00;94173.41;5072601;28;20692;-75
2021/06/03 00:27:03;;;;;;;4.93;3.17;;;;;;;12.12;100.00;94177.81;5073079;28;20217;-75
2021/06/03 00:29:29;;;;;;;7.50;3.80;;;;;;;12.13;100.00;94176.03;5072809;28;20616;-76
2021/06/03 00:31:55;;;;;;;5.03;3.60;;;;;;;12.22;100.00;94172.19;5072886;28;20198;-76
2021/06/03 00:34:22;;;;;;;5.30;3.00;;;;;;;12.50;100.00;94168.56;5072811;28;20677;-76
2021/06/03 00:36:48;;;;;;;8.33;4.03;;;;;;;12.35;100.00;94176.63;5072499;28;20230;-75
2021/06/03 00:39:14;;;;;;;6.23;3.90;;;;;;;12.33;100.00;94178.66;5072657;28;20671;-75
2021/06/03 00:41:40;;;;;;;6.43;3.57;;;;;;;12.40;100.00;94172.41;5075271;28;20282;-77
2021/06/03 00:44:07;;;;;;;6.27;3.70;;;;;;;12.40;100.00;94163.75;5072533;28;20561;-76
2021/06/03 00:46:33;;;;;;;5.17;3.00;;;;;;;12.35;100.00;94166.16;5072602;28;20692;-76
2021/06/03 00:48:59;;;;;;;6.23;3.33;;;;;;;12.35;100.00;94176.63;5072589;28;20531;-77
2021/06/03 00:51:26;;;;;;;4.10;3.20;;;;;;;12.33;100.00;94163.75;5072778;28;20289;-76
2021/06/03 00:53:52;;;;;;;5.27;3.27;;;;;;;12.33;100.00;94168.19;5073383;28;20561;-76
2021/06/03 00:56:18;;;;;;;5.50;3.50;;;;;;;12.33;100.00;94166.38;5076673;28;20242;-75
2021/06/03 00:58:44;;;;;;;6.40;3.07;;;;;;;12.32;100.00;94166.56;5076471;28;20252;-76
2021/06/03 01:01:10;;;;;;;6.07;3.40;;;;;;;12.31;100.00;94170.22;5076393;28;20653;-76
2021/06/03 01:03:36;;;;;;;7.87;3.10;;;;;;;12.32;100.00;94171.81;5076420;28;20202;-76
2021/06/03 01:06:06;;;;;;;4.00;3.17;;;;;;;12.32;100.00;94170.00;5076349;28;20206;-76
2021/06/03 01:08:39;;;;;;;5.90;3.53;;;;;;;12.33;100.00;94178.66;5076592;28;20209;-76
2021/06/03 01:11:16;;;;;;;4.17;3.70;;;;;;;12.27;100.00;94175.00;5076525;28;20539;-76
2021/06/03 01:13:52;;;;;;;4.90;3.53;;;;;;;12.27;100.00;94182.06;5076319;28;20565;-75
2021/06/03 01:16:21;;;;;;;5.40;3.43;;;;;;;12.30;100.00;94184.28;5076037;28;20232;-76
2021/06/03 01:18:48;;;;;;;8.83;3.83;;;;;;;12.32;100.00;94184.88;5076257;28;20205;-76
2021/06/03 01:21:18;;;;;;;5.33;3.60;;;;;;;12.31;100.00;94178.84;5076261;28;20194;-76
2021/06/03 01:23:53;;;;;;;4.27;3.73;;;;;;;12.29;100.00;94183.50;5075572;28;20709;-77
2021/06/03 01:26:20;;;;;;;5.10;3.47;;;;;;;12.34;100.00;94182.88;5076406;28;20210;-76
2021/06/03 01:28:47;;;;;;;6.70;3.80;;;;;;;12.40;100.00;94195.97;5075824;28;20209;-76
2021/06/03 01:31:14;;;;;;;4.97;3.40;;;;;;;12.49;100.00;94190.53;5076073;28;20286;-76
2021/06/03 01:33:42;;;;;;;7.83;3.37;;;;;;;12.62;100.00;94187.09;5075919;28;20210;-76
2021/06/03 01:36:12;;;;;;;6.93;3.53;;;;;;;12.70;100.00;94184.28;5075743;28;20226;-76
2021/06/03 01:38:40;;;;;;;5.43;3.33;;;;;;;12.84;100.00;94196.38;5075838;28;20205;-76
2021/06/03 01:41:09;;;;;;;5.30;3.50;;;;;;;12.90;100.00;94192.91;5075720;28;20564;-77
2021/06/03 01:43:38;;;;;;;8.37;3.73;;;;;;;12.84;100.00;94195.53;5075898;28;20203;-76
2021/06/03 01:46:05;;;;;;;5.47;3.22;;;;;;;12.88;100.00;94196.75;5075216;28;20928;-76
2021/06/03 01:48:32;;;;;;;5.70;3.20;;;;;;;12.96;100.00;94189.47;5075528;28;20202;-76
2021/06/03 01:51:00;;;;;;;8.23;3.07;;;;;;;13.04;100.00;94195.50;5075557;28;20194;-76
2021/06/03 01:53:31;;;;;;;4.50;3.13;;;;;;;12.99;100.00;94197.94;5075647;28;20205;-76
2021/06/03 01:56:02;;;;;;;5.90;3.40;;;;;;;12.92;100.00;94192.72;5075241;28;20226;-77
2021/06/03 01:58:29;;;;;;;4.33;3.10;;;;;;;12.86;100.00;94191.72;5075510;28;20206;-76
2021/06/03 02:00:57;;;;;;;6.10;3.20;;;;;;;12.86;100.00;94193.53;5075371;28;20203;-76
2021/06/03 02:03:25;;;;;;;7.43;3.47;;;;;;;12.92;100.00;94197.94;5075257;28;20251;-75
2021/06/03 02:05:51;;;;;;;3.70;2.87;;;;;;;12.86;100.00;94202.19;5074583;28;20206;-76
2021/06/03 02:08:17;;;;;;;4.90;3.30;;;;;;;12.83;100.00;94197.38;5075140;28;20205;-76
2021/06/03 02:10:44;;;;;;;4.60;3.20;;;;;;;12.83;100.00;94202.59;5075435;28;20306;-76
2021/06/03 02:13:14;;;;;;;6.13;3.40;;;;;;;12.79;100.00;94193.56;5075214;28;20203;-76
2021/06/03 02:15:49;;;;;;;8.27;3.33;;;;;;;12.78;100.00;94202.41;5074979;28;20234;-76
2021/06/03 02:18:18;;;;;;;4.67;3.43;;;;;;;12.75;100.00;94197.56;5075146;28;20208;-76
2021/06/03 02:20:47;;;;;;;6.83;3.47;;;;;;;12.72;100.00;94190.13;5074986;28;20203;-76
2021/06/03 02:23:15;;;;;;;7.03;3.00;;;;;;;12.78;100.00;94197.16;5074989;28;20288;-77
2021/06/03 02:25:41;;;;;;;5.70;3.10;;;;;;;13.05;100.00;94197.94;5075035;28;20539;-76
2021/06/03 02:28:07;;;;;;;6.33;3.00;;;;;;;13.09;100.00;94195.69;5074886;28;20206;-76
2021/06/03 02:30:34;;;;;;;8.90;2.97;;;;;;;13.02;100.00;94203.56;5074880;28;20199;-77
2021/06/03 02:33:00;;;;;;;4.93;3.30;;;;;;;12.95;100.00;94203.59;5074751;28;20735;-76
2021/06/03 02:35:30;;;;;;;6.20;2.70;;;;;;;12.86;100.00;94204.81;5074547;28;20198;-76
2021/06/03 02:37:56;;;;;;;5.97;3.00;;;;;;;12.83;100.00;94207.84;5074810;28;20195;-76
2021/06/03 02:40:25;;;;;;;4.73;3.10;;;;;;;12.83;100.00;94210.47;5074598;28;20653;-75
2021/06/03 02:42:52;;;;;;;3.53;3.00;;;;;;;12.84;100.00;94206.84;5074587;28;20203;-75
2021/06/03 02:45:22;;;;;;;7.20;3.03;;;;;;;12.87;100.00;94206.44;5076842;28;20194;-76
2021/06/03 02:47:49;;;;;;;4.63;3.30;;;;;;;12.92;100.00;94206.63;5074345;28;20211;-75
2021/06/03 02:50:17;;;;;;;5.90;3.40;;;;;;;12.95;100.00;94202.78;5074375;28;20229;-75
2021/06/03 02:52:44;;;;;;;4.13;3.03;;;;;;;12.91;100.00;94210.25;5074599;28;20252;-75
2021/06/03 02:55:13;;;;;;;5.63;3.17;;;;;;;12.90;100.00;94211.25;5074288;28;20207;-75
2021/06/03 02:57:40;;;;;;;4.93;3.20;;;;;;;12.96;100.00;94209.66;5074382;28;20240;-77
2021/06/03 03:00:08;;;;;;;5.23;2.90;;;;;;;12.91;100.00;94212.88;5074210;28;20281;-76
2021/06/03 03:02:34;;;;;;;5.10;2.87;;;;;;;12.89;100.00;94221.94;5074117;28;20228;-75
2021/06/03 03:05:03;;;;;;;7.90;2.87;;;;;;;12.86;100.00;94215.31;5074254;28;20230;-77
2021/06/03 03:07:29;;;;;;;5.50;3.20;;;;;;;12.86;100.00;94217.94;5074050;28;20677;-76
2021/06/03 03:09:56;;;;;;;6.63;3.07;;;;;;;12.86;100.00;94215.31;5074034;28;20653;-77
2021/06/03 03:12:22;;;;;;;5.07;3.17;;;;;;;12.89;100.00;94220.16;5073420;28;20531;-75
2021/06/03 03:14:48;;;;;;;4.97;2.70;;;;;;;12.92;100.00;94219.75;5073963;28;20203;-76
2021/06/03 03:17:14;;;;;;;4.30;3.30;;;;;;;13.00;100.00;94215.28;5072880;28;20230;-76
2021/06/03 03:19:40;;;;;;;7.30;3.60;;;;;;;13.01;100.00;94222.16;5073573;28;20561;-76
2021/06/03 03:22:07;;;;;;;4.07;3.00;;;;;;;13.02;100.00;94218.50;5073715;28;20256;-77
2021/06/03 03:24:33;;;;;;;5.47;3.03;;;;;;;13.07;100.00;94222.13;5073502;28;20226;-76
2021/06/03 03:27:00;;;;;;;5.70;3.33;;;;;;;13.17;100.00;94223.53;5073718;28;20203;-76
2021/06/03 03:29:26;;;;;;;5.90;2.93;;;;;;;13.17;100.00;94223.53;5073744;28;20202;-76
2021/06/03 03:31:52;;;;;;;7.50;3.10;;;;;;;13.18;100.00;94220.69;5073494;28;20209;-76
2021/06/03 03:34:18;;;;;;;5.37;2.80;;;;;;;13.18;100.00;94223.31;5073637;28;20237;-76
2021/06/03 03:36:45;;;;;;;3.83;2.97;;;;;;;13.17;100.00;94226.94;5073494;28;20582;-76
2021/06/03 03:39:11;;;;;;;4.57;2.77;;;;;;;13.15;100.00;94226.34;5073361;28;20674;-76
2021/06/03 03:41:37;;;;;;;8.53;3.23;;;;;;;13.10;100.00;94237.44;5073523;28;20199;-76
2021/06/03 03:44:05;;;;;;;4.83;2.70;;;;;;;13.07;100.00;94227.38;5073523;28;20208;-77
2021/06/03 03:46:31;;;;;;;7.50;3.27;;;;;;;13.04;100.00;94232.19;5073448;28;20203;-76
2021/06/03 03:48:58;;;;;;;4.67;2.80;;;;;;;13.13;100.00;94229.16;5073527;28;20282;-76
2021/06/03 03:51:24;;;;;;;5.80;3.23;;;;;;;13.07;100.00;94226.56;5073245;28;20199;-76
2021/06/03 03:53:50;;;;;;;7.05;3.33;;;;;;;13.18;100.00;94233.81;5072772;28;20443;-76
2021/06/03 03:56:16;;;;;;;4.70;3.17;;;;;;;13.14;100.00;94227.38;5073074;28;20234;-76
2021/06/03 03:58:43;;;;;;;4.47;2.63;;;;;;;13.08;100.00;94228.97;5072988;28;20206;-76
2021/06/03 04:01:11;;;;;;;6.63;2.97;;;;;;;13.01;100.00;94233.44;5073259;28;20205;-75
2021/06/03 04:03:38;;;;;;;5.70;3.00;;;;;;;12.98;100.00;94235.66;5072961;28;20762;-78
2021/06/03 04:06:04;;;;;;;10.17;3.53;;;;;;;12.94;100.00;94228.19;5073136;28;20202;-76
2021/06/03 04:08:30;;;;;;;5.00;2.50;;;;;;;12.93;100.00;94231.03;5073067;28;20371;-76
2021/06/03 04:10:56;;;;;;;5.80;2.93;;;;;;;12.92;100.00;94230.22;5072992;28;20199;-76
2021/06/03 04:13:22;;;;;;;4.77;2.90;;;;;;;13.00;100.00;94231.00;5072873;28;20209;-75
2021/06/03 04:15:48;;;;;;;4.27;2.90;;;;;;;13.08;100.00;94236.03;5073016;28;20222;-75
2021/06/03 04:18:16;;;;;;;5.07;2.90;;;;;;;13.16;100.00;94237.66;5072847;28;20730;-76
2021/06/03 04:20:42;;;;;;;7.17;2.90;;;;;;;13.21;100.00;94241.25;5072932;28;20199;-76
2021/06/03 04:23:08;;;;;;;3.80;2.63;;;;;;;13.30;100.00;94250.50;5072678;28;20230;-76
2021/06/03 04:25:34;;;;;;;4.90;2.93;;;;;;;13.35;100.00;94246.50;5072853;28;20199;-76
2021/06/03 04:28:00;;;;;;;6.47;2.43;;;;;;;13.41;100.00;94237.81;5072736;28;20290;-76
2021/06/03 04:30:27;;;;;;;8.90;3.10;;;;;;;13.46;100.00;94251.13;5072689;28;20211;-77
2021/06/03 04:32:53;;;;;;;3.50;2.40;;;;;;;13.53;100.00;94249.28;5072951;28;20206;-76
2021/06/03 04:35:22;;;;;;;4.97;2.73;;;;;;;13.68;100.00;94251.66;5072636;28;20664;-76
2021/06/03 04:37:49;;;;;;;5.90;2.50;;;;;;;13.81;100.00;94248.97;5072709;28;20204;-76
2021/06/03 04:40:17;;;;;;;5.10;2.63;;;;;;;13.91;100.00;94253.78;5072634;28;20648;-75
2021/06/03 04:42:44;;;;;;;5.63;2.60;;;;;;;14.04;100.00;94251.09;5072570;28;20206;-76
2021/06/03 04:45:12;;;;;;;3.70;2.77;;;;;;;14.20;100.00;94251.59;5072836;28;20256;-76
2021/06/03 04:47:38;;;;;;;3.17;2.47;;;;;;;14.26;100.00;94261.28;5075171;28;20202;-76
2021/06/03 04:50:05;;;;;;;3.33;2.33;;;;;;;14.36;100.00;94260.81;5072695;28;20237;-76
2021/06/03 04:52:32;;;;;;;7.97;2.80;;;;;;;14.43;100.00;94257.13;5072583;28;20206;-75
2021/06/03 04:55:01;;;;;;;3.93;2.60;;;;;;;14.51;100.00;94257.91;5072449;28;20203;-75
2021/06/03 04:57:28;;;;;;;7.00;2.73;;;;;;;14.63;100.00;94255.41;5072636;28;20287;-76
2021/06/03 04:59:54;;;;;;;7.03;2.67;;;;;;;14.74;100.00;94262.63;5072614;28;20195;-76
2021/06/03 05:02:21;;;;;;;3.53;2.10;;;;;;;14.83;100.00;94265.78;5072420;28;20203;-75
2021/06/03 05:04:47;;;;;;;2.63;2.17;;;;;;;14.96;100.00;94265.69;5072535;28;20194;-76
2021/06/03 05:07:13;;;;;;;2.20;2.00;;;;;;;15.09;100.00;94265.56;5072433;28;20205;-75
2021/06/03 05:09:40;;;;;;;3.83;2.08;;;;;;;15.26;100.00;94273.69;5072348;28;20613;-76
2021/06/03 05:12:08;;;;;;;3.50;2.70;;;;;;;15.27;100.00;94277.13;5072558;28;20199;-77
2021/06/03 05:14:34;;;;;;;4.45;2.10;;;;;;;15.32;100.00;94283.34;5072506;28;20297;-76
2021/06/03 05:17:00;;;;;;;4.80;2.40;;;;;;;15.34;100.00;94280.50;5072339;28;20230;-76
2021/06/03 05:19:26;;;;;;;2.50;2.30;;;;;;;15.60;100.00;94281.25;5072149;28;20206;-77
2021/06/03 05:21:53;;;;;;;2.72;2.15;;;;;;;15.88;100.00;94293.94;5072248;28;20207;-77
2021/06/03 05:24:19;;;;;;;3.97;2.20;;;;;;;16.08;100.00;94285.81;5071914;28;20234;-75
2021/06/03 05:26:47;;;;;;;3.58;2.08;;;;;;;16.07;100.00;94290.28;5072350;28;20206;-76
2021/06/03 05:29:15;;;;;;;5.50;2.30;;;;;;;16.33;100.00;94298.06;5072312;28;20206;-76
2021/06/03 05:31:41;;;;;;;6.88;2.03;;;;;;;16.04;100.00;94293.34;5072120;28;20676;-75
2021/06/03 05:34:07;;;;;;;3.05;1.92;;;;;;;16.08;100.00;94301.59;5072157;28;20662;-77
2021/06/03 05:36:33;;;;;;;2.20;1.70;;;;;;;16.40;100.00;94306.66;5072013;28;20232;-75
2021/06/03 05:38:59;;;;;;;3.80;2.38;;;;;;;16.59;100.00;94302.97;5072023;28;20210;-77
2021/06/03 05:41:25;;;;;;;3.85;2.25;;;;;;;16.71;100.00;94312.75;5073913;28;20202;-77
2021/06/03 05:43:52;;;;;;;2.75;1.88;;;;;;;16.94;100.00;94304.91;5075756;28;20228;-77
2021/06/03 05:46:18;;;;;;;2.97;2.40;;;;;;;16.95;100.00;94309.19;5075768;28;20199;-75
2021/06/03 05:48:44;;;;;;;2.38;2.15;;;;;;;17.20;100.00;94310.78;5075628;28;20202;-75
2021/06/03 05:51:10;;;;;;;2.22;2.03;;;;;;;17.19;100.00;94315.28;5075489;28;20293;-75
2021/06/03 05:53:36;;;;;;;2.58;1.80;;;;;;;17.50;100.00;94312.53;5075470;28;20214;-75
2021/06/03 05:56:03;;;;;;;3.58;2.10;;;;;;;17.56;100.00;94306.34;5075570;28;20286;-75
2021/06/03 05:58:29;;;;;;;3.75;1.90;;;;;;;17.68;100.00;94311.63;5075404;28;20206;-75
2021/06/03 06:00:56;;;;;;;3.95;1.90;;;;;;;17.78;100.00;94311.81;5075082;28;20439;-76
2021/06/03 06:03:32;;;;;;;3.95;2.08;;;;;;;17.69;100.00;94308.75;5075358;28;20203;-75
2021/06/03 06:08:39;;;;;;;2.08;1.60;;;;;;;17.94;100.00;94316.44;5072577;28;20574;-76
2021/06/03 06:11:06;;;;;;;2.80;1.98;;;;;;;18.23;100.00;94320.97;5075163;28;20652;-78
2021/06/03 06:13:32;;;;;;;2.33;1.95;;;;;;;18.42;97.56;94311.03;5075194;28;20201;-77
2021/06/03 06:16:00;;;;;;;5.40;1.70;;;;;;;18.30;97.47;94314.50;5075154;28;20227;-75
2021/06/03 06:18:26;;;;;;;6.38;1.85;;;;;;;18.25;98.44;94313.59;5074985;28;20203;-75
2021/06/03 06:20:53;;;;;;;4.68;1.95;;;;;;;18.26;100.00;94313.34;5075432;28;20209;-76
2021/06/03 06:23:19;;;;;;;3.25;2.13;;;;;;;18.53;98.34;94327.88;5074951;28;20820;-76
2021/06/03 06:25:45;;;;;;;3.10;2.20;;;;;;;18.57;98.52;94324.53;5075007;28;20560;-75
2021/06/03 06:28:13;;;;;;;4.30;1.63;;;;;;;18.86;92.43;94338.56;5074800;28;20230;-75
2021/06/03 06:30:40;;;;;;;2.97;1.55;;;;;;;19.16;88.34;94337.47;5074829;28;20195;-76
2021/06/03 06:33:09;;;;;;;5.35;1.77;;;;;;;19.84;85.57;94337.47;5074736;28;20210;-76
2021/06/03 06:35:35;;;;;;;3.60;1.40;;;;;;;20.11;80.90;94337.53;5074970;28;20256;-76
2021/06/03 06:38:05;;;;;;;2.85;1.67;;;;;;;20.29;79.12;94338.31;5074439;28;20701;-76
2021/06/03 06:40:32;;;;;;;5.15;1.60;;;;;;;20.20;79.96;94342.41;5074687;28;20301;-75
2021/06/03 06:42:58;;;;;;;6.35;1.50;;;;;;;20.15;77.72;94335.19;5074580;28;20244;-76
2021/06/03 06:45:27;;;;;;;5.07;1.70;;;;;;;19.61;81.31;94338.44;5076035;28;20462;-77
2021/06/03 06:47:53;;;;;;;3.53;1.60;;;;;;;19.57;80.65;94342.63;5074555;28;20206;-76
2021/06/03 06:50:21;;;;;;;3.47;1.50;;;;;;;19.73;80.73;94347.09;5074522;28;20234;-76
2021/06/03 06:52:48;;;;;;;5.05;1.77;;;;;;;19.73;80.07;94354.22;5074053;28;20668;-76
2021/06/03 06:55:14;;;;;;;2.83;1.60;;;;;;;19.39;81.41;94354.25;5074345;28;20199;-76
2021/06/03 06:57:40;;;;;;;2.33;1.67;;;;;;;19.07;82.32;94354.81;5074114;28;20234;-76
2021/06/03 07:00:09;;;;;;;2.88;1.58;;;;;;;19.15;86.13;94350.94;5074068;28;20620;-76
2021/06/03 07:02:35;;;;;;;4.88;1.48;;;;;;;19.37;81.94;94354.50;5074224;28;20203;-76
2021/06/03 07:05:01;;;;;;;5.68;2.08;;;;;;;19.07;83.26;94351.34;5074207;28;20195;-76
2021/06/03 07:07:28;;;;;;;5.70;1.75;;;;;;;19.06;84.79;94347.09;5074038;28;20237;-76
2021/06/03 07:09:54;;;;;;;2.60;1.58;;;;;;;19.15;84.85;94346.47;5073995;28;20203;-75
2021/06/03 07:12:20;;;;;;;3.10;2.00;;;;;;;19.44;82.90;94348.25;5073998;28;20289;-76
2021/06/03 07:14:46;;;;;;;4.30;1.85;;;;;;;19.59;82.27;94338.66;5073768;28;20719;-76
2021/06/03 07:17:12;;;;;;;3.55;1.90;;;;;;;19.71;80.24;94348.38;5073874;28;20222;-77
2021/06/03 07:19:38;;;;;;;3.20;1.50;;;;;;;19.63;80.27;94346.13;5073869;28;20202;-75
2021/06/03 07:22:06;;;;;;;3.55;1.77;;;;;;;19.67;78.33;94340.13;5073749;28;20249;-76
2021/06/03 07:24:34;;;;;;;2.85;1.48;;;;;;;19.78;80.25;94338.44;5073408;28;20235;-76
2021/06/03 07:27:00;;;;;;;2.45;1.40;;;;;;;19.99;79.23;94346.69;5073601;28;20286;-76
2021/06/03 07:29:26;;;;;;;2.53;1.70;;;;;;;20.23;77.06;94350.69;5073618;28;20206;-75
2021/06/03 07:31:52;;;;;;;3.90;1.65;;;;;;;20.33;79.46;94350.00;5073819;28;20289;-74
2021/06/03 07:34:18;;;;;;;2.10;1.80;;;;;;;20.27;75.67;94340.41;5073486;28;20662;-76
2021/06/03 07:36:44;;;;;;;1.88;1.42;;;;;;;20.22;79.60;94343.78;5073487;28;20270;-75
2021/06/03 07:39:10;;;;;;;3.20;1.70;;;;;;;20.43;81.95;94341.38;5073416;28;20199;-76
2021/06/03 07:41:38;;;;;;;3.50;1.50;;;;;;;20.49;77.50;94338.53;5073318;28;20209;-77
2021/06/03 07:44:05;;;;;;;2.90;1.90;;;;;;;20.62;81.17;94345.31;5073463;28;20285;-76
2021/06/03 07:46:31;;;;;;;2.75;1.77;;;;;;;20.45;73.46;94342.75;5073523;28;20207;-77
2021/06/03 07:48:59;;;;;;;3.13;1.80;;;;;;;20.59;75.15;94343.16;5073246;28;20212;-74
2021/06/03 07:51:26;;;;;;;3.95;1.63;;;;;;;21.00;79.09;94343.59;5073362;28;20221;-77
2021/06/03 07:53:52;;;;;;;2.20;1.55;;;;;;;21.00;76.27;94343.59;5073312;28;20206;-76
2021/06/03 07:56:18;;;;;;;2.88;1.50;;;;;;;20.96;75.36;94345.16;5073113;28;20232;-76
2021/06/03 07:58:47;;;;;;;3.13;1.58;;;;;;;20.56;76.40;94341.00;5073437;28;20222;-76
2021/06/03 08:01:13;;;;;;;3.10;1.77;;;;;;;20.97;78.73;94333.50;5073319;28;20202;-76
2021/06/03 08:03:41;;;;;;;4.00;1.73;;;;;;;21.09;75.29;94340.50;5072527;28;20408;-76
2021/06/03 08:06:07;;;;;;;4.55;1.55;;;;;;;21.01;73.55;94339.88;5073076;28;20646;-75
2021/06/03 08:08:36;;;;;;;4.75;1.73;;;;;;;20.55;73.68;94335.94;5073045;28;20226;-75
2021/06/03 08:11:02;;;;;;;2.95;1.75;;;;;;;20.43;75.36;94336.06;5072919;28;20202;-76
2021/06/03 08:13:29;;;;;;;4.50;1.77;;;;;;;20.56;73.69;94335.69;5073037;28;20198;-77
2021/06/03 08:15:56;;;;;;;2.55;1.63;;;;;;;20.84;75.20;94333.88;5073035;28;20194;-77
2021/06/03 08:18:22;;;;;;;3.08;1.50;;;;;;;21.10;74.60;94328.81;5072851;28;20723;-76
2021/06/03 08:20:52;;;;;;;2.85;1.60;;;;;;;21.35;74.39;94337.00;5072959;28;20282;-77
2021/06/03 08:23:19;;;;;;;2.25;1.38;;;;;;;21.23;74.44;94331.88;5072821;28;20254;-78
2021/06/03 08:25:47;;;;;;;3.97;1.63;;;;;;;21.16;73.62;94325.94;5073061;28;20201;-76
2021/06/03 08:28:14;;;;;;;2.88;1.48;;;;;;;21.37;72.81;94334.88;5072983;28;20252;-75
2021/06/03 08:30:40;;;;;;;6.72;1.90;;;;;;;21.50;71.54;94331.03;5072952;28;20202;-76
2021/06/03 08:33:08;;;;;;;2.53;1.50;;;;;;;21.47;70.39;94331.53;5072754;28;20588;-76
2021/06/03 08:35:36;;;;;;;5.50;1.67;;;;;;;21.13;70.44;94333.63;5072787;28;20198;-74
2021/06/03 08:38:05;;;;;;;4.20;1.70;;;;;;;21.22;71.45;94329.47;5072590;28;20284;-75
2021/06/03 08:40:33;;;;;;;4.00;1.65;;;;;;;21.11;71.56;94333.88;5072880;28;20199;-77
2021/06/03 08:43:01;;;;;;;4.18;1.63;;;;;;;20.89;73.26;94329.44;5072625;28;20581;-77
2021/06/03 08:45:30;;;;;;;2.85;1.48;;;;;;;20.86;72.94;94337.88;5074842;28;20715;-78
2021/06/03 08:47:57;;;;;;;3.35;1.85;;;;;;;20.43;74.26;94338.72;5072702;28;20195;-77
2021/06/03 08:50:27;;;;;;;3.30;1.73;;;;;;;20.53;74.59;94338.84;5072600;28;20202;-77
2021/06/03 08:52:54;;;;;;;2.88;1.75;;;;;;;20.41;74.19;94344.28;5073051;28;20213;-77
2021/06/03 08:58:08;;;;;;;4.82;1.70;;;;;;;20.22;76.57;94346.44;5072541;28;20275;-77
2021/06/03 09:00:36;;;;;;;3.88;1.70;;;;;;;20.17;76.99;94341.09;5072660;28;20199;-75
2021/06/03 09:03:02;;;;;;;3.78;1.80;;;;;;;20.13;75.32;94347.91;5072443;28;20577;-76
2021/06/03 09:05:29;;;;;;;3.28;1.85;;;;;;;20.25;76.87;94343.31;5072706;28;20256;-75
2021/06/03 09:07:56;;;;;;;4.90;2.00;;;;;;;20.24;74.39;94343.56;5072727;28;20206;-76
2021/06/03 09:10:28;;;;;;;2.80;1.73;;;;;;;20.50;75.63;94340.16;5072554;28;20203;-77
2021/06/03 09:13:08;;;;;;;3.63;1.80;;;;;;;20.82;72.13;94342.09;5072456;28;20205;-76
2021/06/03 09:15:35;;;;;;;2.63;1.55;;;;;;;21.17;69.94;94332.06;5074167;28;20676;-76
2021/06/03 09:18:02;;;;;;;3.83;1.33;;;;;;;21.47;73.40;94330.69;5076361;28;20234;-75
2021/06/03 09:20:30;;;;;;;3.38;1.70;;;;;;;21.72;75.79;94322.94;5076324;28;20247;-75
2021/06/03 09:22:56;;;;;;;5.80;2.00;;;;;;;21.67;67.85;94325.56;5076115;28;20273;-76
2021/06/03 09:25:37;;;;;;;3.97;1.30;;;;;;;22.28;69.83;94329.59;5076231;28;20588;-77
2021/06/03 09:28:21;;;;;;;2.92;1.40;;;;;;;22.56;68.73;94331.06;5076033;28;20201;-76
2021/06/03 09:30:52;;;;;;;3.03;1.40;;;;;;;22.33;70.63;94321.66;5076003;28;20655;-75
2021/06/03 09:33:18;;;;;;;2.20;1.30;;;;;;;22.20;68.40;94314.94;5076098;28;20553;-75
2021/06/03 09:35:56;;;;;;;3.13;1.33;;;;;;;21.70;70.22;94314.44;5075889;28;20203;-76
2021/06/03 09:38:22;;;;;;;10.43;1.55;;;;;;;21.31;67.69;94322.59;5075726;28;20230;-75
2021/06/03 09:40:49;;;;;;;4.63;1.40;;;;;;;21.01;67.52;94323.94;5076024;28;20225;-77
2021/06/03 09:43:19;;;;;;;4.30;1.52;;;;;;;21.25;74.77;94323.66;5076030;28;20561;-76
2021/06/03 09:45:57;;;;;;;2.05;1.30;;;;;;;21.55;71.22;94315.13;5076179;28;20198;-75
2021/06/03 09:48:40;;;;;;;3.35;1.38;;;;;;;21.31;67.17;94327.94;5075703;28;20206;-76
2021/06/03 09:51:19;;;;;;;3.30;1.63;;;;;;;21.00;68.85;94329.50;5075576;28;20650;-76
2021/06/03 09:53:54;;;;;;;5.80;1.40;;;;;;;20.95;69.12;94324.16;5076021;28;20198;-77
2021/06/03 09:56:22;;;;;;;1.92;1.45;;;;;;;21.22;72.10;94324.16;5075655;28;20205;-75
2021/06/03 09:58:48;;;;;;;2.45;1.42;;;;;;;21.41;70.91;94322.69;5075583;28;20244;-76
2021/06/03 10:01:14;;;;;;;2.35;1.83;;;;;;;21.48;69.95;94319.06;5075359;28;20596;-75
2021/06/03 10:03:50;;;;;;;4.25;1.65;;;;;;;21.43;75.00;94320.59;5075660;28;20204;-74
2021/06/03 10:06:17;;;;;;;4.32;2.00;;;;;;;21.90;70.96;94323.56;5075336;28;20561;-75
2021/06/03 10:08:47;;;;;;;3.60;1.73;;;;;;;22.37;68.39;94325.41;5075293;28;20657;-75
2021/06/03 10:11:33;;;;;;;4.85;1.65;;;;;;;22.79;67.74;94319.16;5075480;28;20244;-74
2021/06/03 10:14:08;;;;;;;3.03;1.60;;;;;;;22.98;62.61;94315.97;5075099;28;20206;-75
2021/06/03 10:16:34;;;;;;;4.47;1.50;;;;;;;22.91;62.38;94317.06;5074169;28;20446;-76
2021/06/03 10:19:19;;;;;;;3.65;1.52;;;;;;;23.07;62.55;94319.75;5075282;28;20210;-75
2021/06/03 10:22:11;;;;;;;2.17;1.30;;;;;;;23.49;59.59;94318.69;5075093;28;20661;-75
2021/06/03 10:24:48;;;;;;;2.42;1.25;;;;;;;23.43;58.83;94319.75;5074941;28;20227;-76
2021/06/03 10:27:14;;;;;;;2.05;1.40;;;;;;;23.37;58.55;94312.84;5074512;28;20202;-77
2021/06/03 10:29:41;;;;;;;2.45;1.10;;;;;;;23.41;60.77;94311.22;5075015;28;20256;-75
2021/06/03 10:32:07;;;;;;;3.38;1.42;;;;;;;23.41;62.90;94314.69;5074992;28;20202;-74
2021/06/03 10:34:33;;;;;;;3.03;1.25;;;;;;;23.60;59.76;94314.94;5074815;28;20759;-76
2021/06/03 10:37:01;;;;;;;2.53;1.42;;;;;;;23.28;58.62;94324.03;5074849;28;20222;-76
2021/06/03 10:39:29;;;;;;;3.78;1.30;;;;;;;22.72;62.53;94321.28;5074944;28;20205;-75
2021/06/03 10:41:55;;;;;;;2.72;1.55;;;;;;;23.21;61.74;94320.03;5077322;28;20205;-76
2021/06/03 10:44:22;;;;;;;4.50;1.20;;;;;;;23.22;61.29;94316.31;5074589;28;20199;-76
2021/06/03 10:46:48;;;;;;;2.65;1.70;;;;;;;23.26;64.60;94315.50;5074656;28;20248;-75
2021/06/03 10:49:16;;;;;;;4.40;1.75;;;;;;;23.04;61.88;94314.94;5074355;28;20653;-75
2021/06/03 10:51:43;;;;;;;2.92;1.38;;;;;;;23.08;60.40;94314.16;5074668;28;20203;-75
2021/06/03 10:54:10;;;;;;;2.40;1.40;;;;;;;23.03;60.30;94323.97;5075637;28;20209;-75
2021/06/03 10:56:36;;;;;;;4.65;1.50;;;;;;;23.20;61.54;94318.41;5094505;28;20218;-77
2021/06/03 10:59:04;;;;;;;4.95;1.50;;;;;;;23.31;61.64;94304.03;5094438;28;20209;-75
2021/06/03 11:01:30;;;;;;;2.13;1.27;;;;;;;23.76;59.82;94310.38;5094777;28;20292;-75
2021/06/03 11:04:00;;;;;;;3.72;1.40;;;;;;;24.20;59.77;94311.66;5094459;28;20194;-75
2021/06/03 11:06:28;;;;;;;1.42;1.05;;;;;;;24.71;57.17;94319.44;5094602;28;20198;-75
2021/06/03 11:09:02;;;;;;;4.20;1.10;;;;;;;24.50;54.89;94310.72;5094536;28;20255;-75
2021/06/03 11:11:32;;;;;;;2.17;1.30;;;;;;;24.09;56.88;94302.06;5094338;28;20205;-75
2021/06/03 11:14:10;;;;;;;4.63;1.50;;;;;;;23.59;58.56;94315.22;5094551;28;20198;-76
2021/06/03 11:16:50;;;;;;;3.97;2.42;;;;;;;23.05;61.12;94312.00;5094426;28;20229;-76
2021/06/03 11:19:17;;;;;;;3.05;1.38;;;;;;;22.85;58.78;94306.66;5094375;28;20292;-74
2021/06/03 11:21:58;;;;;;;2.05;1.42;;;;;;;22.74;60.71;94311.16;5094127;28;20210;-76
2021/06/03 11:24:42;;;;;;;1.98;1.33;;;;;;;22.33;61.12;94308.38;5093913;28;20228;-76
2021/06/03 11:27:12;;;;;;;5.30;2.30;;;;;;;22.51;63.49;94312.41;5081799;28;20191;-76
2021/06/03 11:29:41;;;;;;;3.65;1.50;;;;;;;22.33;62.63;94311.84;5079435;28;20438;-76
2021/06/03 11:32:20;;;;;;;1.25;1.15;;;;;;;22.16;59.74;94312.00;5080413;28;20256;-76
2021/06/03 11:34:48;;;;;;;3.95;1.35;;;;;;;23.04;60.49;94307.72;5083234;28;20225;-76
2021/06/03 11:37:16;;;;;;;3.50;0.93;;;;;;;23.39;59.58;94313.38;5078543;28;20604;-76